sensor_id;sensor_type;location;lat;lon;timestamp;P1;durP1;ratioP1;P2;durP2;ratioP2
56593;SDS011;42474;51.660;5.824;2022-11-12T00:02:04;15.1;;;10.8;;
56593;SDS011;42474;51.660;5.824;2022-11-12T00:07:04;15.3;;;9.7;;
56593;SDS011;42474;51.660;5.824;2022-11-12T00:12:04;14.1;;;9.4;;
56593;SDS011;42474;51.660;5.824;2022-11-12T00:17:04;13.0;;;9.6;;
56593;SDS011;42474;51.660;5.824;2022-11-12T00:22:04;13.4;;;9.4;;
56593;SDS011;42474;51.660;5.824;2022-11-12T00:27:04;16.9;;;10.8;;
56593;SDS011;42474;51.660;5.824;2022-11-12T00:37:04;14.8;;;10.2;;
56593;SDS011;42474;51.660;5.824;2022-11-12T00:42:04;15.2;;;10.4;;
56593;SDS011;42474;51.660;5.824;2022-11-12T00:47:04;18.1;;;10.1;;
56593;SDS011;42474;51.660;5.824;2022-11-12T00:52:04;16.1;;;9.3;;
56593;SDS011;42474;51.660;5.824;2022-11-12T00:57:04;15.7;;;9.6;;
56593;SDS011;42474;51.660;5.824;2022-11-12T01:02:04;15.0;;;9.9;;
56593;SDS011;42474;51.660;5.824;2022-11-12T01:07:04;13.8;;;9.4;;
56593;SDS011;42474;51.660;5.824;2022-11-12T01:12:04;14.5;;;9.6;;
56593;SDS011;42474;51.660;5.824;2022-11-12T01:17:04;12.8;;;9.5;;
56593;SDS011;42474;51.660;5.824;2022-11-12T01:22:04;11.0;;;8.7;;
56593;SDS011;42474;51.660;5.824;2022-11-12T01:27:04;11.5;;;8.7;;
56593;SDS011;42474;51.660;5.824;2022-11-12T01:32:04;14.8;;;9.1;;
56593;SDS011;42474;51.660;5.824;2022-11-12T01:37:04;12.4;;;9.4;;
56593;SDS011;42474;51.660;5.824;2022-11-12T01:42:04;13.2;;;9.8;;
56593;SDS011;42474;51.660;5.824;2022-11-12T01:47:05;12.3;;;8.9;;
56593;SDS011;42474;51.660;5.824;2022-11-12T01:52:07;10.7;;;8.1;;
56593;SDS011;42474;51.660;5.824;2022-11-12T01:57:05;12.8;;;9.8;;
56593;SDS011;42474;51.660;5.824;2022-11-12T02:02:04;12.2;;;8.5;;
56593;SDS011;42474;51.660;5.824;2022-11-12T02:07:04;11.1;;;8.4;;
56593;SDS011;42474;51.660;5.824;2022-11-12T02:12:04;10.0;;;7.6;;
56593;SDS011;42474;51.660;5.824;2022-11-12T02:17:04;9.9;;;7.7;;
56593;SDS011;42474;51.660;5.824;2022-11-12T02:22:04;10.0;;;7.8;;
56593;SDS011;42474;51.660;5.824;2022-11-12T02:27:06;12.6;;;8.4;;
56593;SDS011;42474;51.660;5.824;2022-11-12T02:32:04;12.4;;;9.0;;
56593;SDS011;42474;51.660;5.824;2022-11-12T02:37:04;13.0;;;9.0;;
56593;SDS011;42474;51.660;5.824;2022-11-12T02:42:04;12.3;;;8.9;;
56593;SDS011;42474;51.660;5.824;2022-11-12T02:47:04;10.2;;;8.4;;
56593;SDS011;42474;51.660;5.824;2022-11-12T02:52:04;12.1;;;7.5;;
56593;SDS011;42474;51.660;5.824;2022-11-12T02:57:04;8.8;;;7.6;;
56593;SDS011;42474;51.660;5.824;2022-11-12T03:02:04;10.5;;;7.4;;
56593;SDS011;42474;51.660;5.824;2022-11-12T03:07:04;10.4;;;7.7;;
56593;SDS011;42474;51.660;5.824;2022-11-12T03:12:04;9.7;;;8.1;;
56593;SDS011;42474;51.660;5.824;2022-11-12T03:17:04;9.9;;;7.3;;
56593;SDS011;42474;51.660;5.824;2022-11-12T03:22:04;9.8;;;7.7;;
56593;SDS011;42474;51.660;5.824;2022-11-12T03:27:04;9.5;;;7.5;;
56593;SDS011;42474;51.660;5.824;2022-11-12T03:32:04;11.3;;;8.0;;
56593;SDS011;42474;51.660;5.824;2022-11-12T03:37:04;10.8;;;7.9;;
56593;SDS011;42474;51.660;5.824;2022-11-12T03:42:04;10.2;;;7.6;;
56593;SDS011;42474;51.660;5.824;2022-11-12T03:47:04;11.0;;;7.7;;
56593;SDS011;42474;51.660;5.824;2022-11-12T03:52:04;9.3;;;7.6;;
56593;SDS011;42474;51.660;5.824;2022-11-12T03:57:04;9.3;;;6.8;;
56593;SDS011;42474;51.660;5.824;2022-11-12T04:02:04;11.4;;;8.4;;
56593;SDS011;42474;51.660;5.824;2022-11-12T04:07:04;9.4;;;7.8;;
56593;SDS011;42474;51.660;5.824;2022-11-12T04:12:04;11.6;;;7.9;;
56593;SDS011;42474;51.660;5.824;2022-11-12T04:17:04;9.5;;;7.6;;
56593;SDS011;42474;51.660;5.824;2022-11-12T04:22:05;10.1;;;7.7;;
56593;SDS011;42474;51.660;5.824;2022-11-12T04:27:05;10.7;;;8.3;;
56593;SDS011;42474;51.660;5.824;2022-11-12T04:32:04;9.3;;;7.5;;
56593;SDS011;42474;51.660;5.824;2022-11-12T04:37:05;11.0;;;7.9;;
56593;SDS011;42474;51.660;5.824;2022-11-12T04:42:04;11.6;;;8.3;;
56593;SDS011;42474;51.660;5.824;2022-11-12T04:47:04;11.6;;;8.2;;
56593;SDS011;42474;51.660;5.824;2022-11-12T04:52:04;9.0;;;7.0;;
56593;SDS011;42474;51.660;5.824;2022-11-12T04:57:04;7.5;;;6.6;;
56593;SDS011;42474;51.660;5.824;2022-11-12T05:02:04;7.2;;;5.8;;
56593;SDS011;42474;51.660;5.824;2022-11-12T05:07:04;8.4;;;6.3;;
56593;SDS011;42474;51.660;5.824;2022-11-12T05:12:04;11.2;;;7.0;;
56593;SDS011;42474;51.660;5.824;2022-11-12T05:17:04;10.0;;;6.0;;
56593;SDS011;42474;51.660;5.824;2022-11-12T05:22:04;8.2;;;6.2;;
56593;SDS011;42474;51.660;5.824;2022-11-12T05:27:05;9.4;;;7.4;;
56593;SDS011;42474;51.660;5.824;2022-11-12T05:32:04;10.8;;;6.9;;
56593;SDS011;42474;51.660;5.824;2022-11-12T05:37:05;10.0;;;6.6;;
56593;SDS011;42474;51.660;5.824;2022-11-12T05:42:04;10.0;;;7.0;;
56593;SDS011;42474;51.660;5.824;2022-11-12T05:47:04;9.5;;;6.6;;
56593;SDS011;42474;51.660;5.824;2022-11-12T05:52:04;10.5;;;7.3;;
56593;SDS011;42474;51.660;5.824;2022-11-12T05:57:04;10.3;;;7.1;;
56593;SDS011;42474;51.660;5.824;2022-11-12T06:02:04;9.4;;;6.8;;
56593;SDS011;42474;51.660;5.824;2022-11-12T06:07:04;10.5;;;6.9;;
56593;SDS011;42474;51.660;5.824;2022-11-12T06:12:04;8.0;;;6.4;;
56593;SDS011;42474;51.660;5.824;2022-11-12T06:17:04;8.9;;;6.5;;
56593;SDS011;42474;51.660;5.824;2022-11-12T06:22:04;7.9;;;6.3;;
56593;SDS011;42474;51.660;5.824;2022-11-12T06:32:04;9.5;;;7.0;;
56593;SDS011;42474;51.660;5.824;2022-11-12T06:37:04;9.0;;;7.0;;
56593;SDS011;42474;51.660;5.824;2022-11-12T06:42:04;11.6;;;7.7;;
56593;SDS011;42474;51.660;5.824;2022-11-12T06:47:04;11.2;;;7.0;;
56593;SDS011;42474;51.660;5.824;2022-11-12T06:52:04;8.5;;;6.7;;
56593;SDS011;42474;51.660;5.824;2022-11-12T06:57:04;9.9;;;6.8;;
56593;SDS011;42474;51.660;5.824;2022-11-12T07:02:04;9.3;;;6.4;;
56593;SDS011;42474;51.660;5.824;2022-11-12T07:07:04;9.5;;;6.2;;
56593;SDS011;42474;51.660;5.824;2022-11-12T07:12:04;7.9;;;6.0;;
56593;SDS011;42474;51.660;5.824;2022-11-12T07:17:04;8.9;;;5.7;;
56593;SDS011;42474;51.660;5.824;2022-11-12T07:22:04;10.4;;;6.1;;
56593;SDS011;42474;51.660;5.824;2022-11-12T07:27:04;9.8;;;6.6;;
56593;SDS011;42474;51.660;5.824;2022-11-12T07:32:04;11.8;;;7.1;;
56593;SDS011;42474;51.660;5.824;2022-11-12T07:37:04;12.8;;;7.8;;
56593;SDS011;42474;51.660;5.824;2022-11-12T07:42:04;12.8;;;7.6;;
56593;SDS011;42474;51.660;5.824;2022-11-12T07:47:04;10.9;;;7.6;;
56593;SDS011;42474;51.660;5.824;2022-11-12T07:52:04;9.8;;;7.2;;
56593;SDS011;42474;51.660;5.824;2022-11-12T07:57:04;12.0;;;7.6;;
56593;SDS011;42474;51.660;5.824;2022-11-12T08:02:04;11.1;;;7.5;;
56593;SDS011;42474;51.660;5.824;2022-11-12T08:07:04;12.9;;;8.4;;
56593;SDS011;42474;51.660;5.824;2022-11-12T08:12:04;15.9;;;8.4;;
56593;SDS011;42474;51.660;5.824;2022-11-12T08:17:04;15.6;;;9.2;;
56593;SDS011;42474;51.660;5.824;2022-11-12T08:22:04;25.9;;;9.3;;
56593;SDS011;42474;51.660;5.824;2022-11-12T08:27:04;14.2;;;9.1;;
56593;SDS011;42474;51.660;5.824;2022-11-12T08:32:04;13.8;;;9.3;;
56593;SDS011;42474;51.660;5.824;2022-11-12T08:37:04;15.1;;;10.1;;
56593;SDS011;42474;51.660;5.824;2022-11-12T08:42:04;14.3;;;10.1;;
56593;SDS011;42474;51.660;5.824;2022-11-12T08:47:04;13.3;;;9.8;;
56593;SDS011;42474;51.660;5.824;2022-11-12T08:52:04;16.5;;;11.2;;
56593;SDS011;42474;51.660;5.824;2022-11-12T08:57:04;16.0;;;10.9;;
56593;SDS011;42474;51.660;5.824;2022-11-12T09:02:04;15.7;;;10.4;;
56593;SDS011;42474;51.660;5.824;2022-11-12T09:07:04;15.9;;;11.2;;
56593;SDS011;42474;51.660;5.824;2022-11-12T09:12:04;16.5;;;11.7;;
56593;SDS011;42474;51.660;5.824;2022-11-12T09:17:04;18.5;;;12.1;;
56593;SDS011;42474;51.660;5.824;2022-11-12T09:22:04;15.1;;;11.2;;
56593;SDS011;42474;51.660;5.824;2022-11-12T09:27:04;15.4;;;11.6;;
56593;SDS011;42474;51.660;5.824;2022-11-12T09:32:04;17.0;;;12.3;;
56593;SDS011;42474;51.660;5.824;2022-11-12T09:37:04;17.6;;;11.6;;
56593;SDS011;42474;51.660;5.824;2022-11-12T09:42:06;15.2;;;11.1;;
56593;SDS011;42474;51.660;5.824;2022-11-12T09:47:05;16.9;;;11.4;;
56593;SDS011;42474;51.660;5.824;2022-11-12T09:52:05;16.2;;;11.5;;
56593;SDS011;42474;51.660;5.824;2022-11-12T09:57:07;14.8;;;11.0;;
56593;SDS011;42474;51.660;5.824;2022-11-12T10:02:05;13.8;;;10.9;;
56593;SDS011;42474;51.660;5.824;2022-11-12T10:07:05;14.7;;;10.9;;
56593;SDS011;42474;51.660;5.824;2022-11-12T10:12:04;16.9;;;11.8;;
56593;SDS011;42474;51.660;5.824;2022-11-12T10:18:16;27.2;;;11.4;;
56593;SDS011;42474;51.660;5.824;2022-11-12T10:23:14;15.2;;;9.8;;
56593;SDS011;42474;51.660;5.824;2022-11-12T10:27:12;12.0;;;9.6;;
56593;SDS011;42474;51.660;5.824;2022-11-12T10:32:07;13.9;;;9.5;;
56593;SDS011;42474;51.660;5.824;2022-11-12T10:37:05;11.6;;;9.0;;
56593;SDS011;42474;51.660;5.824;2022-11-12T10:42:09;12.8;;;9.1;;
56593;SDS011;42474;51.660;5.824;2022-11-12T10:47:20;11.2;;;9.5;;
56593;SDS011;42474;51.660;5.824;2022-11-12T10:52:16;12.3;;;9.3;;
56593;SDS011;42474;51.660;5.824;2022-11-12T10:57:12;14.4;;;9.6;;
56593;SDS011;42474;51.660;5.824;2022-11-12T11:02:14;11.2;;;9.2;;
56593;SDS011;42474;51.660;5.824;2022-11-12T11:07:05;13.1;;;9.5;;
56593;SDS011;42474;51.660;5.824;2022-11-12T11:12:07;12.1;;;8.7;;
56593;SDS011;42474;51.660;5.824;2022-11-12T11:17:04;11.2;;;8.8;;
56593;SDS011;42474;51.660;5.824;2022-11-12T11:22:05;10.7;;;8.9;;
56593;SDS011;42474;51.660;5.824;2022-11-12T11:27:18;12.0;;;9.9;;
56593;SDS011;42474;51.660;5.824;2022-11-12T11:32:13;10.6;;;8.2;;
56593;SDS011;42474;51.660;5.824;2022-11-12T11:37:07;11.0;;;8.3;;
56593;SDS011;42474;51.660;5.824;2022-11-12T11:42:37;10.0;;;8.3;;
56593;SDS011;42474;51.660;5.824;2022-11-12T11:47:56;8.9;;;7.6;;
56593;SDS011;42474;51.660;5.824;2022-11-12T11:53:26;13.2;;;8.6;;
56593;SDS011;42474;51.660;5.824;2022-11-12T11:57:14;9.7;;;8.0;;
56593;SDS011;42474;51.660;5.824;2022-11-12T12:02:48;10.0;;;8.2;;
56593;SDS011;42474;51.660;5.824;2022-11-12T12:07:33;11.0;;;7.8;;
56593;SDS011;42474;51.660;5.824;2022-11-12T12:12:13;11.0;;;8.3;;
56593;SDS011;42474;51.660;5.824;2022-11-12T12:17:49;9.8;;;7.6;;
56593;SDS011;42474;51.660;5.824;2022-11-12T12:22:07;10.6;;;7.8;;
56593;SDS011;42474;51.660;5.824;2022-11-12T12:27:09;9.1;;;7.6;;
56593;SDS011;42474;51.660;5.824;2022-11-12T12:32:06;10.1;;;7.8;;
56593;SDS011;42474;51.660;5.824;2022-11-12T12:37:08;9.3;;;7.5;;
56593;SDS011;42474;51.660;5.824;2022-11-12T12:42:05;11.0;;;8.3;;
56593;SDS011;42474;51.660;5.824;2022-11-12T12:47:04;9.8;;;7.7;;
56593;SDS011;42474;51.660;5.824;2022-11-12T12:52:04;10.5;;;7.9;;
56593;SDS011;42474;51.660;5.824;2022-11-12T12:57:08;12.6;;;8.5;;
56593;SDS011;42474;51.660;5.824;2022-11-12T13:02:12;11.3;;;9.1;;
56593;SDS011;42474;51.660;5.824;2022-11-12T13:07:04;11.0;;;8.4;;
56593;SDS011;42474;51.660;5.824;2022-11-12T13:12:07;10.8;;;8.8;;
56593;SDS011;42474;51.660;5.824;2022-11-12T13:17:09;10.3;;;7.9;;
56593;SDS011;42474;51.660;5.824;2022-11-12T13:22:50;10.0;;;7.4;;
56593;SDS011;42474;51.660;5.824;2022-11-12T13:27:04;10.4;;;7.8;;
56593;SDS011;42474;51.660;5.824;2022-11-12T13:32:35;8.8;;;7.3;;
56593;SDS011;42474;51.660;5.824;2022-11-12T13:37:04;8.2;;;7.1;;
56593;SDS011;42474;51.660;5.824;2022-11-12T13:42:12;9.2;;;6.9;;
56593;SDS011;42474;51.660;5.824;2022-11-12T13:47:04;8.0;;;6.6;;
56593;SDS011;42474;51.660;5.824;2022-11-12T13:52:05;7.4;;;6.5;;
56593;SDS011;42474;51.660;5.824;2022-11-12T13:57:23;8.6;;;6.6;;
56593;SDS011;42474;51.660;5.824;2022-11-12T14:02:17;7.9;;;6.2;;
56593;SDS011;42474;51.660;5.824;2022-11-12T14:07:16;7.1;;;5.6;;
56593;SDS011;42474;51.660;5.824;2022-11-12T14:12:55;15.4;;;7.3;;
56593;SDS011;42474;51.660;5.824;2022-11-12T14:18:24;7.2;;;5.3;;
56593;SDS011;42474;51.660;5.824;2022-11-12T14:22:11;6.6;;;5.2;;
56593;SDS011;42474;51.660;5.824;2022-11-12T14:27:23;7.2;;;6.0;;
56593;SDS011;42474;51.660;5.824;2022-11-12T14:32:07;8.5;;;5.8;;
56593;SDS011;42474;51.660;5.824;2022-11-12T14:37:04;6.9;;;6.1;;
56593;SDS011;42474;51.660;5.824;2022-11-12T14:42:04;8.4;;;5.7;;
56593;SDS011;42474;51.660;5.824;2022-11-12T14:47:04;7.4;;;5.8;;
56593;SDS011;42474;51.660;5.824;2022-11-12T14:52:05;7.8;;;6.0;;
56593;SDS011;42474;51.660;5.824;2022-11-12T14:57:04;7.0;;;5.4;;
56593;SDS011;42474;51.660;5.824;2022-11-12T15:02:13;7.3;;;6.0;;
56593;SDS011;42474;51.660;5.824;2022-11-12T15:07:04;6.5;;;5.4;;
56593;SDS011;42474;51.660;5.824;2022-11-12T15:12:05;7.6;;;5.5;;
56593;SDS011;42474;51.660;5.824;2022-11-12T15:17:04;6.9;;;5.5;;
56593;SDS011;42474;51.660;5.824;2022-11-12T15:22:05;7.7;;;5.7;;
56593;SDS011;42474;51.660;5.824;2022-11-12T15:37:05;8.6;;;5.2;;
56593;SDS011;42474;51.660;5.824;2022-11-12T15:42:05;8.5;;;5.3;;
56593;SDS011;42474;51.660;5.824;2022-11-12T15:47:04;6.7;;;5.4;;
56593;SDS011;42474;51.660;5.824;2022-11-12T15:52:04;5.7;;;5.0;;
56593;SDS011;42474;51.660;5.824;2022-11-12T15:57:06;7.8;;;5.2;;
56593;SDS011;42474;51.660;5.824;2022-11-12T16:02:09;8.2;;;5.2;;
56593;SDS011;42474;51.660;5.824;2022-11-12T16:07:04;7.9;;;5.5;;
56593;SDS011;42474;51.660;5.824;2022-11-12T16:12:05;9.9;;;6.2;;
56593;SDS011;42474;51.660;5.824;2022-11-12T16:17:04;7.2;;;5.4;;
56593;SDS011;42474;51.660;5.824;2022-11-12T16:22:04;7.9;;;5.7;;
56593;SDS011;42474;51.660;5.824;2022-11-12T16:27:05;7.4;;;5.3;;
56593;SDS011;42474;51.660;5.824;2022-11-12T16:32:05;7.9;;;5.9;;
56593;SDS011;42474;51.660;5.824;2022-11-12T16:37:07;7.3;;;5.7;;
56593;SDS011;42474;51.660;5.824;2022-11-12T16:42:05;7.6;;;5.8;;
56593;SDS011;42474;51.660;5.824;2022-11-12T16:47:05;6.9;;;5.7;;
56593;SDS011;42474;51.660;5.824;2022-11-12T16:52:04;8.7;;;5.7;;
56593;SDS011;42474;51.660;5.824;2022-11-12T16:57:04;9.1;;;5.9;;
56593;SDS011;42474;51.660;5.824;2022-11-12T17:02:07;8.4;;;5.7;;
56593;SDS011;42474;51.660;5.824;2022-11-12T17:07:05;8.1;;;6.2;;
56593;SDS011;42474;51.660;5.824;2022-11-12T17:12:05;8.1;;;5.9;;
56593;SDS011;42474;51.660;5.824;2022-11-12T17:17:04;8.4;;;5.8;;
56593;SDS011;42474;51.660;5.824;2022-11-12T17:22:05;6.9;;;5.6;;
56593;SDS011;42474;51.660;5.824;2022-11-12T17:27:05;11.0;;;6.6;;
56593;SDS011;42474;51.660;5.824;2022-11-12T17:32:04;8.9;;;6.1;;
56593;SDS011;42474;51.660;5.824;2022-11-12T17:37:05;10.7;;;6.6;;
56593;SDS011;42474;51.660;5.824;2022-11-12T17:42:04;9.8;;;6.5;;
56593;SDS011;42474;51.660;5.824;2022-11-12T17:47:05;9.8;;;6.4;;
56593;SDS011;42474;51.660;5.824;2022-11-12T17:52:04;11.1;;;7.4;;
56593;SDS011;42474;51.660;5.824;2022-11-12T17:57:05;10.2;;;7.6;;
56593;SDS011;42474;51.660;5.824;2022-11-12T18:02:05;13.2;;;7.3;;
56593;SDS011;42474;51.660;5.824;2022-11-12T18:07:05;12.0;;;7.8;;
56593;SDS011;42474;51.660;5.824;2022-11-12T18:12:05;14.8;;;7.6;;
56593;SDS011;42474;51.660;5.824;2022-11-12T18:17:05;10.4;;;7.3;;
56593;SDS011;42474;51.660;5.824;2022-11-12T18:22:05;11.0;;;7.8;;
56593;SDS011;42474;51.660;5.824;2022-11-12T18:27:05;15.1;;;8.2;;
56593;SDS011;42474;51.660;5.824;2022-11-12T18:32:05;11.6;;;8.2;;
56593;SDS011;42474;51.660;5.824;2022-11-12T18:37:05;11.6;;;7.5;;
56593;SDS011;42474;51.660;5.824;2022-11-12T18:42:05;10.9;;;7.6;;
56593;SDS011;42474;51.660;5.824;2022-11-12T18:47:05;9.5;;;7.3;;
56593;SDS011;42474;51.660;5.824;2022-11-12T18:52:05;11.2;;;7.2;;
56593;SDS011;42474;51.660;5.824;2022-11-12T18:57:05;11.4;;;7.7;;
56593;SDS011;42474;51.660;5.824;2022-11-12T19:02:05;18.0;;;12.6;;
56593;SDS011;42474;51.660;5.824;2022-11-12T19:07:05;14.3;;;10.1;;
56593;SDS011;42474;51.660;5.824;2022-11-12T19:12:05;9.7;;;6.9;;
56593;SDS011;42474;51.660;5.824;2022-11-12T19:17:05;9.6;;;6.9;;
56593;SDS011;42474;51.660;5.824;2022-11-12T19:22:05;8.9;;;6.4;;
56593;SDS011;42474;51.660;5.824;2022-11-12T19:27:05;8.3;;;6.2;;
56593;SDS011;42474;51.660;5.824;2022-11-12T19:32:05;7.7;;;5.6;;
56593;SDS011;42474;51.660;5.824;2022-11-12T19:37:05;6.6;;;5.0;;
56593;SDS011;42474;51.660;5.824;2022-11-12T19:42:05;6.2;;;4.6;;
56593;SDS011;42474;51.660;5.824;2022-11-12T19:47:05;5.4;;;4.5;;
56593;SDS011;42474;51.660;5.824;2022-11-12T19:52:05;6.9;;;5.4;;
56593;SDS011;42474;51.660;5.824;2022-11-12T19:57:05;8.4;;;5.8;;
56593;SDS011;42474;51.660;5.824;2022-11-12T20:02:06;8.1;;;6.3;;
56593;SDS011;42474;51.660;5.824;2022-11-12T20:07:05;7.6;;;5.9;;
56593;SDS011;42474;51.660;5.824;2022-11-12T20:12:05;7.2;;;5.4;;
56593;SDS011;42474;51.660;5.824;2022-11-12T20:17:05;7.3;;;5.0;;
56593;SDS011;42474;51.660;5.824;2022-11-12T20:22:05;6.1;;;4.7;;
56593;SDS011;42474;51.660;5.824;2022-11-12T20:27:05;6.3;;;4.8;;
56593;SDS011;42474;51.660;5.824;2022-11-12T20:32:05;7.7;;;5.7;;
56593;SDS011;42474;51.660;5.824;2022-11-12T20:37:05;8.1;;;5.4;;
56593;SDS011;42474;51.660;5.824;2022-11-12T20:42:05;8.8;;;6.5;;
56593;SDS011;42474;51.660;5.824;2022-11-12T20:47:05;8.3;;;6.8;;
56593;SDS011;42474;51.660;5.824;2022-11-12T20:52:05;10.5;;;6.9;;
56593;SDS011;42474;51.660;5.824;2022-11-12T20:57:05;10.0;;;7.6;;
56593;SDS011;42474;51.660;5.824;2022-11-12T21:02:05;11.2;;;8.5;;
56593;SDS011;42474;51.660;5.824;2022-11-12T21:07:05;12.9;;;8.8;;
56593;SDS011;42474;51.660;5.824;2022-11-12T21:12:05;15.3;;;10.5;;
56593;SDS011;42474;51.660;5.824;2022-11-12T21:17:05;16.6;;;11.0;;
56593;SDS011;42474;51.660;5.824;2022-11-12T21:22:05;16.6;;;11.7;;
56593;SDS011;42474;51.660;5.824;2022-11-12T21:27:05;15.8;;;11.4;;
56593;SDS011;42474;51.660;5.824;2022-11-12T21:32:05;14.8;;;11.2;;
56593;SDS011;42474;51.660;5.824;2022-11-12T21:37:05;17.4;;;12.5;;
56593;SDS011;42474;51.660;5.824;2022-11-12T21:42:05;19.4;;;12.4;;
56593;SDS011;42474;51.660;5.824;2022-11-12T21:47:05;16.7;;;12.6;;
56593;SDS011;42474;51.660;5.824;2022-11-12T21:52:05;18.3;;;11.4;;
56593;SDS011;42474;51.660;5.824;2022-11-12T21:57:05;15.7;;;11.0;;
56593;SDS011;42474;51.660;5.824;2022-11-12T22:02:05;15.6;;;11.1;;
56593;SDS011;42474;51.660;5.824;2022-11-12T22:07:05;16.6;;;11.1;;
56593;SDS011;42474;51.660;5.824;2022-11-12T22:12:05;18.1;;;12.4;;
56593;SDS011;42474;51.660;5.824;2022-11-12T22:17:05;17.8;;;12.5;;
56593;SDS011;42474;51.660;5.824;2022-11-12T22:22:05;18.2;;;12.3;;
56593;SDS011;42474;51.660;5.824;2022-11-12T22:27:05;18.9;;;11.6;;
56593;SDS011;42474;51.660;5.824;2022-11-12T22:32:05;15.8;;;11.3;;
56593;SDS011;42474;51.660;5.824;2022-11-12T22:37:05;17.9;;;11.4;;
56593;SDS011;42474;51.660;5.824;2022-11-12T22:42:05;17.5;;;11.7;;
56593;SDS011;42474;51.660;5.824;2022-11-12T22:47:05;16.1;;;11.4;;
56593;SDS011;42474;51.660;5.824;2022-11-12T22:52:05;16.7;;;11.7;;
56593;SDS011;42474;51.660;5.824;2022-11-12T22:57:05;17.4;;;11.2;;
56593;SDS011;42474;51.660;5.824;2022-11-12T23:02:05;15.5;;;11.2;;
56593;SDS011;42474;51.660;5.824;2022-11-12T23:07:05;18.6;;;11.7;;
56593;SDS011;42474;51.660;5.824;2022-11-12T23:12:05;15.5;;;10.8;;
56593;SDS011;42474;51.660;5.824;2022-11-12T23:17:05;15.9;;;11.3;;
56593;SDS011;42474;51.660;5.824;2022-11-12T23:22:05;17.0;;;10.7;;
56593;SDS011;42474;51.660;5.824;2022-11-12T23:27:05;14.7;;;10.6;;
56593;SDS011;42474;51.660;5.824;2022-11-12T23:32:05;13.8;;;9.7;;
56593;SDS011;42474;51.660;5.824;2022-11-12T23:37:05;15.0;;;10.2;;
56593;SDS011;42474;51.660;5.824;2022-11-12T23:42:05;14.3;;;10.0;;
56593;SDS011;42474;51.660;5.824;2022-11-12T23:47:05;13.6;;;10.4;;
56593;SDS011;42474;51.660;5.824;2022-11-12T23:52:05;13.3;;;9.4;;
56593;SDS011;42474;51.660;5.824;2022-11-12T23:57:05;14.9;;;10.1;;
